createdAt,value
2018-02-07T00:00:52.452Z,81.29
2018-02-07T00:03:18.255Z,80.84
2018-02-07T00:05:44.030Z,81.50
2018-02-07T00:08:09.842Z,82.16
2018-02-07T00:10:35.635Z,81.91
2018-02-07T00:13:01.419Z,82.32
2018-02-07T00:15:27.236Z,82.11
2018-02-07T00:17:53.015Z,81.97
2018-02-07T00:20:18.810Z,82.00
2018-02-07T00:22:44.616Z,82.39
2018-02-07T00:25:10.406Z,81.87
2018-02-07T00:27:36.241Z,82.09
2018-02-07T00:30:02.055Z,82.19
2018-02-07T00:32:27.825Z,81.94
2018-02-07T00:34:53.606Z,82.09
2018-02-07T00:37:19.380Z,81.82
2018-02-07T00:39:45.178Z,82.41
2018-02-07T00:42:10.956Z,82.48
2018-02-07T00:44:36.733Z,82.21
2018-02-07T00:47:02.550Z,82.17
2018-02-07T00:49:28.322Z,82.32
2018-02-07T00:51:54.103Z,82.12
2018-02-07T00:54:20.138Z,81.70
2018-02-07T00:56:45.928Z,81.76
2018-02-07T00:59:11.695Z,82.16
2018-02-07T01:01:37.510Z,82.66
2018-02-07T01:04:03.284Z,82.99
2018-02-07T01:06:29.074Z,82.29
2018-02-07T01:08:54.912Z,82.21
2018-02-07T01:11:20.695Z,82.75
2018-02-07T01:13:46.475Z,82.78
2018-02-07T01:16:12.282Z,82.20
2018-02-07T01:18:38.184Z,82.96
2018-02-07T01:21:03.986Z,82.81
2018-02-07T01:23:29.774Z,83.10
2018-02-07T01:25:55.559Z,83.40
2018-02-07T01:28:21.334Z,83.55
2018-02-07T01:30:47.274Z,83.18
2018-02-07T01:33:13.065Z,83.04
2018-02-07T01:35:38.852Z,83.16
2018-02-07T01:38:04.658Z,83.51
2018-02-07T01:40:30.454Z,83.47
2018-02-07T01:42:56.238Z,83.24
2018-02-07T01:45:22.034Z,83.54
2018-02-07T01:47:47.826Z,83.64
2018-02-07T01:50:13.615Z,83.74
2018-02-07T01:52:39.415Z,84.01
2018-02-07T01:55:05.195Z,84.56
2018-02-07T01:57:30.978Z,84.72
2018-02-07T01:59:56.782Z,84.43
2018-02-07T02:02:23.315Z,84.64
2018-02-07T02:04:50.099Z,84.17
2018-02-07T02:07:15.925Z,84.02
2018-02-07T02:09:41.724Z,84.02
2018-02-07T02:12:07.524Z,84.01
2018-02-07T02:14:33.446Z,83.84
2018-02-07T02:16:59.214Z,83.61
2018-02-07T02:19:24.998Z,83.88
2018-02-07T02:21:50.770Z,83.54
2018-02-07T02:24:16.534Z,84.17
2018-02-07T02:26:42.347Z,84.05
2018-02-07T02:29:08.142Z,84.56
2018-02-07T02:31:33.910Z,84.68
2018-02-07T02:33:59.976Z,83.93
2018-02-07T02:36:38.095Z,84.66
2018-02-07T02:39:03.958Z,83.66
2018-02-07T02:41:29.730Z,83.38
2018-02-07T02:43:55.551Z,83.02
2018-02-07T02:46:21.353Z,83.19
2018-02-07T02:48:47.162Z,83.42
2018-02-07T02:51:12.941Z,83.52
2018-02-07T02:53:38.721Z,84.31
2018-02-07T02:56:04.511Z,84.23
2018-02-07T02:58:30.286Z,84.41
2018-02-07T03:00:56.111Z,83.91
2018-02-07T03:03:21.931Z,83.42
2018-02-07T03:05:47.706Z,83.40
2018-02-07T03:08:13.478Z,83.72
2018-02-07T03:10:39.258Z,84.18
2018-02-07T03:13:05.035Z,83.96
2018-02-07T03:15:30.816Z,83.99
2018-02-07T03:17:56.613Z,84.05
2018-02-07T03:20:22.399Z,84.09
2018-02-07T03:22:48.178Z,84.87
2018-02-07T03:25:13.982Z,84.37
2018-02-07T03:27:39.761Z,83.79
2018-02-07T03:30:05.536Z,83.21
2018-02-07T03:32:31.345Z,83.53
2018-02-07T03:34:57.124Z,83.95
2018-02-07T03:37:22.895Z,83.70
2018-02-07T03:39:48.699Z,83.78
2018-02-07T03:42:14.489Z,84.82
2018-02-07T03:44:40.285Z,84.46
2018-02-07T03:47:06.057Z,84.54
2018-02-07T03:49:32.733Z,85.27
2018-02-07T03:51:58.514Z,85.17
2018-02-07T03:54:24.293Z,85.18
2018-02-07T03:56:50.385Z,85.47
2018-02-07T03:59:16.174Z,84.81
2018-02-07T04:01:41.963Z,85.36
2018-02-07T04:04:07.774Z,85.55
2018-02-07T04:06:33.550Z,85.23
2018-02-07T04:08:59.326Z,84.76
2018-02-07T04:11:25.105Z,84.80
2018-02-07T04:13:50.879Z,84.79
2018-02-07T04:16:16.642Z,84.34
2018-02-07T04:18:42.423Z,84.66
2018-02-07T04:21:08.206Z,85.60
2018-02-07T04:23:33.998Z,85.27
2018-02-07T04:25:59.785Z,85.04
2018-02-07T04:28:25.581Z,84.49
2018-02-07T04:30:51.418Z,84.21
2018-02-07T04:33:17.162Z,84.47
2018-02-07T04:35:42.939Z,84.98
2018-02-07T04:38:08.723Z,85.17
2018-02-07T04:40:34.565Z,84.33
2018-02-07T04:43:00.404Z,85.04
2018-02-07T04:45:26.182Z,85.06
2018-02-07T04:47:51.979Z,85.55
2018-02-07T04:50:17.826Z,86.16
2018-02-07T04:52:43.644Z,86.31
2018-02-07T04:55:09.426Z,87.00
2018-02-07T04:57:35.193Z,86.25
2018-02-07T05:00:00.975Z,86.87
2018-02-07T05:02:26.782Z,86.78
2018-02-07T05:04:52.597Z,86.52
2018-02-07T05:07:18.410Z,85.91
2018-02-07T05:09:44.230Z,85.97
2018-02-07T05:12:10.003Z,86.81
2018-02-07T05:14:35.773Z,86.74
2018-02-07T05:17:01.770Z,86.20
2018-02-07T05:19:27.554Z,87.20
2018-02-07T05:21:53.345Z,91.52
2018-02-07T05:24:19.147Z,90.40
2018-02-07T05:26:44.926Z,90.45
2018-02-07T05:29:10.699Z,88.86
2018-02-07T05:31:36.666Z,88.81
2018-02-07T05:34:02.441Z,87.08
2018-02-07T05:36:28.209Z,87.09
2018-02-07T05:38:53.997Z,86.92
2018-02-07T05:41:19.773Z,87.98
2018-02-07T05:43:45.542Z,86.72
2018-02-07T05:46:11.330Z,86.40
2018-02-07T05:48:37.111Z,86.58
2018-02-07T05:51:02.914Z,87.17
2018-02-07T05:53:28.842Z,86.53
2018-02-07T05:55:54.635Z,86.49
2018-02-07T05:58:20.435Z,86.30
2018-02-07T06:00:46.497Z,87.13
2018-02-07T06:03:12.278Z,88.32
2018-02-07T06:05:38.079Z,87.81
2018-02-07T06:08:03.862Z,86.72
2018-02-07T06:10:29.641Z,86.98
2018-02-07T06:12:55.793Z,87.21
2018-02-07T06:15:21.557Z,87.71
2018-02-07T06:17:47.349Z,87.80
2018-02-07T06:20:13.146Z,87.28
2018-02-07T06:22:38.935Z,86.84
2018-02-07T06:25:04.735Z,86.54
2018-02-07T06:27:30.522Z,86.88
2018-02-07T06:29:56.316Z,87.88
2018-02-07T06:32:22.129Z,86.75
2018-02-07T06:34:55.026Z,87.09
2018-02-07T06:37:20.842Z,86.45
2018-02-07T06:39:46.627Z,86.47
2018-02-07T06:42:12.408Z,86.48
2018-02-07T06:44:38.211Z,86.96
2018-02-07T06:47:03.987Z,86.84
2018-02-07T06:49:29.822Z,86.72
2018-02-07T06:51:55.959Z,87.20
2018-02-07T06:54:21.745Z,87.10
2018-02-07T06:56:47.507Z,86.76
2018-02-07T06:59:13.316Z,86.70
2018-02-07T07:01:39.091Z,87.08
2018-02-07T07:04:04.863Z,87.46
2018-02-07T07:06:30.771Z,87.48
2018-02-07T07:08:56.546Z,87.27
2018-02-07T07:11:22.309Z,87.04
2018-02-07T07:13:48.118Z,87.15
2018-02-07T07:16:13.902Z,86.82
2018-02-07T07:18:39.694Z,86.88
2018-02-07T07:21:05.702Z,86.90
2018-02-07T07:23:31.486Z,86.84
2018-02-07T07:25:57.477Z,87.21
2018-02-07T07:28:23.434Z,86.58
2018-02-07T07:30:49.257Z,86.75
2018-02-07T07:33:15.049Z,86.98
2018-02-07T07:35:40.846Z,86.80
2018-02-07T07:38:06.627Z,86.30
2018-02-07T07:40:32.422Z,86.66
2018-02-07T07:42:58.207Z,86.47
2018-02-07T07:45:23.987Z,86.25
2018-02-07T07:47:49.774Z,86.31
2018-02-07T07:50:15.565Z,86.08
2018-02-07T07:52:41.358Z,85.88
2018-02-07T07:55:07.145Z,85.87
2018-02-07T07:57:32.922Z,85.66
2018-02-07T07:59:58.730Z,86.02
2018-02-07T08:02:24.515Z,84.86
2018-02-07T08:04:50.297Z,84.39
2018-02-07T08:07:16.062Z,85.09
2018-02-07T08:09:41.845Z,83.81
2018-02-07T08:12:07.642Z,83.82
2018-02-07T08:14:33.437Z,84.06
2018-02-07T08:16:59.219Z,84.42
2018-02-07T08:19:25.019Z,84.29
2018-02-07T08:21:50.789Z,84.01
2018-02-07T08:24:16.581Z,83.96
2018-02-07T08:26:42.373Z,83.82
2018-02-07T08:29:08.150Z,83.06
2018-02-07T08:31:33.954Z,82.25
2018-02-07T08:33:59.926Z,82.26
2018-02-07T08:36:25.705Z,81.70
2018-02-07T08:38:51.494Z,82.51
2018-02-07T08:41:17.273Z,82.48
2018-02-07T08:43:43.050Z,81.76
2018-02-07T08:46:08.838Z,82.03
2018-02-07T08:48:34.634Z,81.05
2018-02-07T08:51:00.426Z,81.04
2018-02-07T08:53:26.210Z,81.46
2018-02-07T08:55:52.031Z,80.72
2018-02-07T08:58:17.810Z,80.71
2018-02-07T09:00:43.591Z,79.35
2018-02-07T09:03:09.366Z,80.25
2018-02-07T09:05:35.138Z,80.38
2018-02-07T09:08:00.931Z,79.44
2018-02-07T09:10:26.887Z,79.78
2018-02-07T09:12:52.653Z,77.97
2018-02-07T09:15:18.434Z,78.72
2018-02-07T09:17:44.234Z,77.69
2018-02-07T09:20:10.018Z,77.85
2018-02-07T09:22:35.804Z,78.02
2018-02-07T09:25:01.592Z,78.04
2018-02-07T09:27:27.389Z,77.19
2018-02-07T09:29:53.167Z,76.55
2018-02-07T09:32:18.956Z,76.15
2018-02-07T09:34:44.788Z,75.64
2018-02-07T09:37:10.570Z,75.48
2018-02-07T09:39:36.392Z,75.34
2018-02-07T09:42:02.318Z,75.57
2018-02-07T09:44:28.117Z,75.96
2018-02-07T09:46:53.918Z,75.76
2018-02-07T09:49:19.731Z,75.31
2018-02-07T09:51:45.520Z,74.92
2018-02-07T09:54:11.295Z,74.15
2018-02-07T09:56:37.087Z,74.56
2018-02-07T09:59:02.849Z,74.20
2018-02-07T10:01:28.622Z,73.03
2018-02-07T10:03:54.685Z,72.65
2018-02-07T10:06:20.462Z,72.79
2018-02-07T10:08:46.269Z,73.14
2018-02-07T10:11:12.055Z,72.00
2018-02-07T10:13:37.850Z,72.68
2018-02-07T10:16:03.667Z,72.22
2018-02-07T10:18:29.445Z,71.25
2018-02-07T10:20:55.242Z,71.22
2018-02-07T10:23:21.051Z,71.09
2018-02-07T10:25:46.845Z,70.81
2018-02-07T10:28:12.628Z,70.49
2018-02-07T10:30:38.674Z,69.12
2018-02-07T10:33:04.479Z,69.97
2018-02-07T10:35:30.267Z,70.75
2018-02-07T10:37:56.073Z,69.38
2018-02-07T10:40:21.862Z,69.16
2018-02-07T10:42:47.641Z,68.11
2018-02-07T10:45:13.462Z,67.66
2018-02-07T10:47:39.271Z,68.54
2018-02-07T10:50:05.334Z,67.60
2018-02-07T10:52:31.152Z,67.38
2018-02-07T10:54:57.355Z,67.12
2018-02-07T10:57:24.232Z,66.42
2018-02-07T10:59:50.047Z,64.73
2018-02-07T11:02:15.851Z,65.37
2018-02-07T11:04:41.637Z,66.02
2018-02-07T11:07:07.649Z,66.54
2018-02-07T11:09:33.825Z,64.35
2018-02-07T11:11:59.603Z,64.80
2018-02-07T11:14:25.378Z,64.91
2018-02-07T11:16:51.446Z,64.18
2018-02-07T11:19:17.276Z,66.16
2018-02-07T11:21:43.302Z,66.80
2018-02-07T11:24:09.102Z,65.39
2018-02-07T11:26:34.950Z,64.87
2018-02-07T11:29:00.742Z,64.03
2018-02-07T11:31:26.615Z,64.35
2018-02-07T11:33:52.751Z,64.35
2018-02-07T11:36:18.563Z,64.67
2018-02-07T11:38:44.345Z,65.03
2018-02-07T11:41:10.130Z,64.36
2018-02-07T11:43:36.208Z,62.39
2018-02-07T11:46:02.074Z,62.96
2018-02-07T11:48:27.860Z,62.30
2018-02-07T11:50:53.658Z,63.02
2018-02-07T11:53:19.984Z,63.62
2018-02-07T11:55:45.772Z,62.15
2018-02-07T11:58:11.740Z,60.70
2018-02-07T12:00:37.566Z,60.61
2018-02-07T12:03:03.350Z,65.27
2018-02-07T12:05:29.140Z,63.92
2018-02-07T12:07:54.967Z,62.07
2018-02-07T12:10:21.057Z,59.55
2018-02-07T12:12:46.880Z,60.42
2018-02-07T12:15:12.883Z,64.70
2018-02-07T12:17:38.672Z,61.09
2018-02-07T12:20:04.463Z,58.30
2018-02-07T12:22:30.279Z,58.56
2018-02-07T12:24:56.079Z,58.11
2018-02-07T12:27:21.887Z,59.85
2018-02-07T12:29:47.679Z,58.21
2018-02-07T12:32:13.807Z,56.96
2018-02-07T12:34:39.874Z,56.36
2018-02-07T12:37:05.685Z,57.91
2018-02-07T12:39:31.495Z,55.81
2018-02-07T12:41:57.299Z,46.33
2018-02-07T12:44:23.334Z,48.38
2018-02-07T12:46:49.516Z,46.03
2018-02-07T12:49:15.910Z,43.86
2018-02-07T12:51:41.733Z,45.52
2018-02-07T12:54:07.510Z,42.73
2018-02-07T12:56:33.631Z,45.27
2018-02-07T12:58:59.870Z,44.96
2018-02-07T13:01:26.032Z,43.58
2018-02-07T13:03:52.386Z,44.64
2018-02-07T13:06:18.206Z,46.18
2018-02-07T13:08:43.997Z,45.88
2018-02-07T13:11:09.815Z,44.78
2018-02-07T13:13:35.590Z,44.93
2018-02-07T13:16:01.644Z,43.91
2018-02-07T13:18:27.751Z,41.77
2018-02-07T13:20:53.574Z,42.77
2018-02-07T13:23:19.362Z,39.66
2018-02-07T13:25:45.162Z,40.87
2018-02-07T13:28:11.153Z,44.79
2018-02-07T13:30:36.957Z,100.00
2018-02-07T20:09:10.188Z,100.00
